sensor_id;sensor_type;location;lat;lon;timestamp;P1;durP1;ratioP1;P2;durP2;ratioP2
4903;SDS011;2467;48.142;11.616;2023-05-09T00:00:24;16.73;;;15.32;;
4903;SDS011;2467;48.142;11.616;2023-05-09T00:01:04;17.75;;;15.95;;
4903;SDS011;2467;48.142;11.616;2023-05-09T00:01:37;16.77;;;15.27;;
4903;SDS011;2467;48.142;11.616;2023-05-09T00:02:10;17.48;;;15.98;;
4903;SDS011;2467;48.142;11.616;2023-05-09T00:02:43;17.67;;;16.17;;
4903;SDS011;2467;48.142;11.616;2023-05-09T00:03:16;17.05;;;15.63;;
4903;SDS011;2467;48.142;11.616;2023-05-09T00:03:48;17.70;;;16.27;;
4903;SDS011;2467;48.142;11.616;2023-05-09T00:04:21;17.90;;;16.30;;
4903;SDS011;2467;48.142;11.616;2023-05-09T00:04:54;17.30;;;15.90;;
4903;SDS011;2467;48.142;11.616;2023-05-09T00:05:27;18.15;;;16.65;;
4903;SDS011;2467;48.142;11.616;2023-05-09T00:05:59;17.17;;;15.70;;
4903;SDS011;2467;48.142;11.616;2023-05-09T00:06:32;18.35;;;16.38;;
4903;SDS011;2467;48.142;11.616;2023-05-09T00:07:04;17.23;;;15.82;;
4903;SDS011;2467;48.142;11.616;2023-05-09T00:07:37;18.33;;;16.73;;
4903;SDS011;2467;48.142;11.616;2023-05-09T00:08:09;18.52;;;16.83;;
4903;SDS011;2467;48.142;11.616;2023-05-09T00:08:42;16.30;;;14.85;;
4903;SDS011;2467;48.142;11.616;2023-05-09T00:09:15;16.63;;;15.13;;
4903;SDS011;2467;48.142;11.616;2023-05-09T00:09:47;17.55;;;16.05;;
4903;SDS011;2467;48.142;11.616;2023-05-09T00:10:19;17.35;;;15.75;;
4903;SDS011;2467;48.142;11.616;2023-05-09T00:10:52;18.30;;;16.80;;
4903;SDS011;2467;48.142;11.616;2023-05-09T00:11:24;16.58;;;15.07;;
4903;SDS011;2467;48.142;11.616;2023-05-09T00:11:56;17.88;;;16.33;;
4903;SDS011;2467;48.142;11.616;2023-05-09T00:12:27;17.90;;;16.30;;
4903;SDS011;2467;48.142;11.616;2023-05-09T00:13:01;18.67;;;16.92;;
4903;SDS011;2467;48.142;11.616;2023-05-09T00:13:33;18.65;;;17.05;;
4903;SDS011;2467;48.142;11.616;2023-05-09T00:14:05;18.95;;;17.25;;
4903;SDS011;2467;48.142;11.616;2023-05-09T00:14:36;18.42;;;16.83;;
4903;SDS011;2467;48.142;11.616;2023-05-09T00:15:10;19.90;;;16.63;;
4903;SDS011;2467;48.142;11.616;2023-05-09T00:15:43;18.38;;;16.80;;
4903;SDS011;2467;48.142;11.616;2023-05-09T00:16:15;17.45;;;15.90;;
4903;SDS011;2467;48.142;11.616;2023-05-09T00:16:50;19.40;;;17.65;;
4903;SDS011;2467;48.142;11.616;2023-05-09T00:17:24;22.98;;;20.98;;
4903;SDS011;2467;48.142;11.616;2023-05-09T00:17:57;23.92;;;21.50;;
4903;SDS011;2467;48.142;11.616;2023-05-09T00:18:30;23.13;;;21.00;;
4903;SDS011;2467;48.142;11.616;2023-05-09T00:19:04;27.25;;;24.73;;
4903;SDS011;2467;48.142;11.616;2023-05-09T00:19:37;26.90;;;24.30;;
4903;SDS011;2467;48.142;11.616;2023-05-09T00:20:10;21.85;;;19.70;;
4903;SDS011;2467;48.142;11.616;2023-05-09T00:20:42;21.50;;;19.42;;
4903;SDS011;2467;48.142;11.616;2023-05-09T00:21:14;20.23;;;18.10;;
4903;SDS011;2467;48.142;11.616;2023-05-09T00:21:47;19.23;;;17.42;;
4903;SDS011;2467;48.142;11.616;2023-05-09T00:22:19;18.25;;;16.35;;
4903;SDS011;2467;48.142;11.616;2023-05-09T00:22:51;16.83;;;15.23;;
4903;SDS011;2467;48.142;11.616;2023-05-09T00:23:25;17.30;;;15.80;;
4903;SDS011;2467;48.142;11.616;2023-05-09T00:23:58;18.48;;;16.88;;
4903;SDS011;2467;48.142;11.616;2023-05-09T00:24:31;19.13;;;17.38;;
4903;SDS011;2467;48.142;11.616;2023-05-09T00:25:04;17.67;;;16.13;;
4903;SDS011;2467;48.142;11.616;2023-05-09T00:25:37;17.15;;;15.52;;
4903;SDS011;2467;48.142;11.616;2023-05-09T00:26:09;19.80;;;18.00;;
4903;SDS011;2467;48.142;11.616;2023-05-09T00:26:41;17.65;;;16.05;;
4903;SDS011;2467;48.142;11.616;2023-05-09T00:27:13;18.42;;;16.75;;
4903;SDS011;2467;48.142;11.616;2023-05-09T00:27:46;15.50;;;14.27;;
4903;SDS011;2467;48.142;11.616;2023-05-09T00:28:19;17.60;;;16.10;;
4903;SDS011;2467;48.142;11.616;2023-05-09T00:28:50;17.10;;;15.63;;
4903;SDS011;2467;48.142;11.616;2023-05-09T00:29:22;16.38;;;14.98;;
4903;SDS011;2467;48.142;11.616;2023-05-09T00:29:54;16.35;;;15.02;;
4903;SDS011;2467;48.142;11.616;2023-05-09T00:30:27;16.67;;;15.30;;
4903;SDS011;2467;48.142;11.616;2023-05-09T00:30:59;17.70;;;16.20;;
4903;SDS011;2467;48.142;11.616;2023-05-09T00:31:31;17.40;;;15.73;;
4903;SDS011;2467;48.142;11.616;2023-05-09T00:32:04;16.48;;;15.05;;
4903;SDS011;2467;48.142;11.616;2023-05-09T00:32:36;16.60;;;15.27;;
4903;SDS011;2467;48.142;11.616;2023-05-09T00:33:10;16.58;;;15.18;;
4903;SDS011;2467;48.142;11.616;2023-05-09T00:33:43;16.85;;;15.45;;
4903;SDS011;2467;48.142;11.616;2023-05-09T00:34:15;17.23;;;15.63;;
4903;SDS011;2467;48.142;11.616;2023-05-09T00:34:46;17.65;;;16.13;;
4903;SDS011;2467;48.142;11.616;2023-05-09T00:35:18;17.35;;;15.85;;
4903;SDS011;2467;48.142;11.616;2023-05-09T00:35:51;16.77;;;15.18;;
4903;SDS011;2467;48.142;11.616;2023-05-09T00:36:23;18.05;;;16.55;;
4903;SDS011;2467;48.142;11.616;2023-05-09T00:36:55;19.13;;;17.42;;
4903;SDS011;2467;48.142;11.616;2023-05-09T00:37:28;17.13;;;15.43;;
4903;SDS011;2467;48.142;11.616;2023-05-09T00:38:01;18.13;;;16.42;;
4903;SDS011;2467;48.142;11.616;2023-05-09T00:38:33;18.35;;;16.75;;
4903;SDS011;2467;48.142;11.616;2023-05-09T00:39:07;16.83;;;15.32;;
4903;SDS011;2467;48.142;11.616;2023-05-09T00:39:39;17.15;;;15.65;;
4903;SDS011;2467;48.142;11.616;2023-05-09T00:40:11;16.58;;;15.07;;
4903;SDS011;2467;48.142;11.616;2023-05-09T00:40:44;18.38;;;16.70;;
4903;SDS011;2467;48.142;11.616;2023-05-09T00:41:16;18.52;;;16.92;;
4903;SDS011;2467;48.142;11.616;2023-05-09T00:41:48;18.55;;;16.95;;
4903;SDS011;2467;48.142;11.616;2023-05-09T00:42:22;16.08;;;14.70;;
4903;SDS011;2467;48.142;11.616;2023-05-09T00:42:53;17.17;;;15.57;;
4903;SDS011;2467;48.142;11.616;2023-05-09T00:43:28;17.85;;;16.35;;
4903;SDS011;2467;48.142;11.616;2023-05-09T00:44:01;17.95;;;16.35;;
4903;SDS011;2467;48.142;11.616;2023-05-09T00:44:33;16.48;;;14.88;;
4903;SDS011;2467;48.142;11.616;2023-05-09T00:45:05;17.73;;;16.27;;
4903;SDS011;2467;48.142;11.616;2023-05-09T00:45:39;17.00;;;15.57;;
4903;SDS011;2467;48.142;11.616;2023-05-09T00:46:11;18.33;;;16.73;;
4903;SDS011;2467;48.142;11.616;2023-05-09T00:46:43;16.83;;;15.43;;
4903;SDS011;2467;48.142;11.616;2023-05-09T00:47:15;16.77;;;15.38;;
4903;SDS011;2467;48.142;11.616;2023-05-09T00:47:48;17.40;;;16.00;;
4903;SDS011;2467;48.142;11.616;2023-05-09T00:48:20;16.95;;;15.38;;
4903;SDS011;2467;48.142;11.616;2023-05-09T00:48:53;16.10;;;14.70;;
4903;SDS011;2467;48.142;11.616;2023-05-09T00:49:26;16.00;;;14.35;;
4903;SDS011;2467;48.142;11.616;2023-05-09T00:49:59;16.52;;;15.13;;
4903;SDS011;2467;48.142;11.616;2023-05-09T00:50:31;17.33;;;15.82;;
4903;SDS011;2467;48.142;11.616;2023-05-09T00:51:03;17.13;;;15.52;;
4903;SDS011;2467;48.142;11.616;2023-05-09T00:51:36;16.02;;;14.63;;
4903;SDS011;2467;48.142;11.616;2023-05-09T00:52:09;18.05;;;16.48;;
4903;SDS011;2467;48.142;11.616;2023-05-09T00:52:41;18.15;;;16.58;;
4903;SDS011;2467;48.142;11.616;2023-05-09T00:53:14;17.40;;;15.65;;
4903;SDS011;2467;48.142;11.616;2023-05-09T00:53:46;17.70;;;16.05;;
4903;SDS011;2467;48.142;11.616;2023-05-09T00:54:19;24.30;;;16.00;;
4903;SDS011;2467;48.142;11.616;2023-05-09T00:54:52;16.42;;;15.02;;
4903;SDS011;2467;48.142;11.616;2023-05-09T00:55:24;17.50;;;15.90;;
4903;SDS011;2467;48.142;11.616;2023-05-09T00:55:57;18.35;;;16.67;;
4903;SDS011;2467;48.142;11.616;2023-05-09T00:56:31;16.65;;;15.25;;
4903;SDS011;2467;48.142;11.616;2023-05-09T00:57:03;17.17;;;15.73;;
4903;SDS011;2467;48.142;11.616;2023-05-09T00:57:35;18.10;;;16.50;;
4903;SDS011;2467;48.142;11.616;2023-05-09T00:58:07;16.60;;;15.20;;
4903;SDS011;2467;48.142;11.616;2023-05-09T00:58:40;17.65;;;16.05;;
4903;SDS011;2467;48.142;11.616;2023-05-09T00:59:12;16.73;;;15.30;;
4903;SDS011;2467;48.142;11.616;2023-05-09T00:59:47;18.00;;;16.25;;
4903;SDS011;2467;48.142;11.616;2023-05-09T01:00:20;17.95;;;16.25;;
4903;SDS011;2467;48.142;11.616;2023-05-09T01:00:52;18.48;;;16.70;;
4903;SDS011;2467;48.142;11.616;2023-05-09T01:01:24;16.00;;;14.55;;
4903;SDS011;2467;48.142;11.616;2023-05-09T01:01:57;16.95;;;15.38;;
4903;SDS011;2467;48.142;11.616;2023-05-09T01:02:28;17.20;;;15.65;;
4903;SDS011;2467;48.142;11.616;2023-05-09T01:03:01;18.10;;;16.52;;
4903;SDS011;2467;48.142;11.616;2023-05-09T01:03:35;18.60;;;16.90;;
4903;SDS011;2467;48.142;11.616;2023-05-09T01:04:08;16.88;;;15.35;;
4903;SDS011;2467;48.142;11.616;2023-05-09T01:04:41;16.38;;;14.88;;
4903;SDS011;2467;48.142;11.616;2023-05-09T01:05:15;17.08;;;15.70;;
4903;SDS011;2467;48.142;11.616;2023-05-09T01:05:51;17.15;;;15.63;;
4903;SDS011;2467;48.142;11.616;2023-05-09T01:06:28;15.90;;;14.43;;
4903;SDS011;2467;48.142;11.616;2023-05-09T01:07:10;17.17;;;15.70;;
4903;SDS011;2467;48.142;11.616;2023-05-09T01:07:51;16.50;;;15.10;;
4903;SDS011;2467;48.142;11.616;2023-05-09T01:08:31;16.40;;;14.98;;
4903;SDS011;2467;48.142;11.616;2023-05-09T01:09:14;17.00;;;15.35;;
4903;SDS011;2467;48.142;11.616;2023-05-09T01:09:56;17.25;;;15.48;;
4903;SDS011;2467;48.142;11.616;2023-05-09T01:10:37;16.52;;;15.13;;
4903;SDS011;2467;48.142;11.616;2023-05-09T01:11:16;16.25;;;14.85;;
4903;SDS011;2467;48.142;11.616;2023-05-09T01:11:59;17.30;;;15.70;;
4903;SDS011;2467;48.142;11.616;2023-05-09T01:12:38;18.98;;;17.38;;
4903;SDS011;2467;48.142;11.616;2023-05-09T01:13:18;16.40;;;14.93;;
4903;SDS011;2467;48.142;11.616;2023-05-09T01:13:56;18.67;;;16.98;;
4903;SDS011;2467;48.142;11.616;2023-05-09T01:14:37;16.70;;;15.32;;
4903;SDS011;2467;48.142;11.616;2023-05-09T01:15:17;16.90;;;15.32;;
4903;SDS011;2467;48.142;11.616;2023-05-09T01:15:56;17.17;;;15.70;;
4903;SDS011;2467;48.142;11.616;2023-05-09T01:16:37;17.80;;;16.10;;
4903;SDS011;2467;48.142;11.616;2023-05-09T01:17:15;16.90;;;15.45;;
4903;SDS011;2467;48.142;11.616;2023-05-09T01:17:56;16.25;;;14.82;;
4903;SDS011;2467;48.142;11.616;2023-05-09T01:18:32;17.38;;;15.77;;
4903;SDS011;2467;48.142;11.616;2023-05-09T01:19:16;16.40;;;14.98;;
4903;SDS011;2467;48.142;11.616;2023-05-09T01:20:06;17.50;;;15.98;;
4903;SDS011;2467;48.142;11.616;2023-05-09T01:20:44;17.48;;;15.98;;
4903;SDS011;2467;48.142;11.616;2023-05-09T01:21:23;16.00;;;14.60;;
4903;SDS011;2467;48.142;11.616;2023-05-09T01:21:59;17.45;;;15.80;;
4903;SDS011;2467;48.142;11.616;2023-05-09T01:22:35;18.00;;;16.40;;
4903;SDS011;2467;48.142;11.616;2023-05-09T01:24:31;16.27;;;14.68;;
4903;SDS011;2467;48.142;11.616;2023-05-09T01:25:32;15.13;;;13.82;;
4903;SDS011;2467;48.142;11.616;2023-05-09T01:26:13;17.15;;;15.50;;
4903;SDS011;2467;48.142;11.616;2023-05-09T01:26:54;15.85;;;14.35;;
4903;SDS011;2467;48.142;11.616;2023-05-09T01:27:49;16.92;;;15.43;;
4903;SDS011;2467;48.142;11.616;2023-05-09T01:28:33;18.85;;;16.27;;
4903;SDS011;2467;48.142;11.616;2023-05-09T01:29:33;16.42;;;14.95;;
4903;SDS011;2467;48.142;11.616;2023-05-09T01:30:07;16.80;;;15.30;;
4903;SDS011;2467;48.142;11.616;2023-05-09T01:30:43;17.67;;;16.17;;
4903;SDS011;2467;48.142;11.616;2023-05-09T01:31:17;17.70;;;16.00;;
4903;SDS011;2467;48.142;11.616;2023-05-09T01:31:50;16.73;;;15.30;;
4903;SDS011;2467;48.142;11.616;2023-05-09T01:32:25;18.23;;;16.23;;
4903;SDS011;2467;48.142;11.616;2023-05-09T01:32:59;17.92;;;16.02;;
4903;SDS011;2467;48.142;11.616;2023-05-09T01:33:37;18.10;;;16.20;;
4903;SDS011;2467;48.142;11.616;2023-05-09T01:34:11;17.25;;;15.52;;
4903;SDS011;2467;48.142;11.616;2023-05-09T01:34:48;16.35;;;14.75;;
4903;SDS011;2467;48.142;11.616;2023-05-09T01:35:22;16.40;;;15.00;;
4903;SDS011;2467;48.142;11.616;2023-05-09T01:35:57;16.58;;;15.07;;
4903;SDS011;2467;48.142;11.616;2023-05-09T01:36:34;16.23;;;14.82;;
4903;SDS011;2467;48.142;11.616;2023-05-09T01:37:09;17.67;;;15.98;;
4903;SDS011;2467;48.142;11.616;2023-05-09T01:37:44;16.52;;;14.93;;
4903;SDS011;2467;48.142;11.616;2023-05-09T01:38:21;16.35;;;14.95;;
4903;SDS011;2467;48.142;11.616;2023-05-09T01:38:55;16.90;;;15.40;;
4903;SDS011;2467;48.142;11.616;2023-05-09T01:39:28;16.20;;;14.90;;
4903;SDS011;2467;48.142;11.616;2023-05-09T01:40:05;17.13;;;15.57;;
4903;SDS011;2467;48.142;11.616;2023-05-09T01:40:40;17.38;;;15.88;;
4903;SDS011;2467;48.142;11.616;2023-05-09T01:41:13;16.70;;;15.18;;
4903;SDS011;2467;48.142;11.616;2023-05-09T01:41:47;17.23;;;15.73;;
4903;SDS011;2467;48.142;11.616;2023-05-09T01:42:20;17.15;;;15.70;;
4903;SDS011;2467;48.142;11.616;2023-05-09T01:42:55;17.60;;;16.00;;
4903;SDS011;2467;48.142;11.616;2023-05-09T01:43:30;16.45;;;15.02;;
4903;SDS011;2467;48.142;11.616;2023-05-09T01:44:05;17.85;;;16.35;;
4903;SDS011;2467;48.142;11.616;2023-05-09T01:44:42;17.48;;;15.88;;
4903;SDS011;2467;48.142;11.616;2023-05-09T01:45:18;16.00;;;14.50;;
4903;SDS011;2467;48.142;11.616;2023-05-09T01:45:50;16.05;;;14.75;;
4903;SDS011;2467;48.142;11.616;2023-05-09T01:46:23;20.40;;;18.65;;
4903;SDS011;2467;48.142;11.616;2023-05-09T01:46:58;18.00;;;16.40;;
4903;SDS011;2467;48.142;11.616;2023-05-09T01:47:31;16.95;;;15.45;;
4903;SDS011;2467;48.142;11.616;2023-05-09T01:48:04;17.48;;;15.73;;
4903;SDS011;2467;48.142;11.616;2023-05-09T01:48:39;16.77;;;15.30;;
4903;SDS011;2467;48.142;11.616;2023-05-09T01:49:12;17.08;;;15.55;;
4903;SDS011;2467;48.142;11.616;2023-05-09T01:49:45;17.08;;;15.57;;
4903;SDS011;2467;48.142;11.616;2023-05-09T01:50:19;16.80;;;15.35;;
4903;SDS011;2467;48.142;11.616;2023-05-09T01:50:52;16.33;;;15.02;;
4903;SDS011;2467;48.142;11.616;2023-05-09T01:51:25;15.60;;;14.30;;
4903;SDS011;2467;48.142;11.616;2023-05-09T01:52:03;16.45;;;14.95;;
4903;SDS011;2467;48.142;11.616;2023-05-09T01:52:38;15.85;;;14.55;;
4903;SDS011;2467;48.142;11.616;2023-05-09T01:53:12;17.35;;;15.80;;
4903;SDS011;2467;48.142;11.616;2023-05-09T01:53:47;16.80;;;15.25;;
4903;SDS011;2467;48.142;11.616;2023-05-09T01:54:21;16.55;;;15.05;;
4903;SDS011;2467;48.142;11.616;2023-05-09T01:54:56;16.08;;;14.77;;
4903;SDS011;2467;48.142;11.616;2023-05-09T01:55:30;15.95;;;14.55;;
4903;SDS011;2467;48.142;11.616;2023-05-09T01:56:04;16.27;;;14.77;;
4903;SDS011;2467;48.142;11.616;2023-05-09T01:56:39;17.40;;;15.73;;
4903;SDS011;2467;48.142;11.616;2023-05-09T01:57:14;16.80;;;15.30;;
4903;SDS011;2467;48.142;11.616;2023-05-09T01:57:48;15.90;;;14.50;;
4903;SDS011;2467;48.142;11.616;2023-05-09T01:58:20;15.98;;;14.57;;
4903;SDS011;2467;48.142;11.616;2023-05-09T01:58:54;14.68;;;13.48;;
4903;SDS011;2467;48.142;11.616;2023-05-09T01:59:27;15.55;;;14.25;;
4903;SDS011;2467;48.142;11.616;2023-05-09T02:00:03;17.05;;;15.45;;
4903;SDS011;2467;48.142;11.616;2023-05-09T02:00:39;17.08;;;15.38;;
4903;SDS011;2467;48.142;11.616;2023-05-09T02:01:11;16.83;;;15.30;;
4903;SDS011;2467;48.142;11.616;2023-05-09T02:01:45;17.25;;;15.68;;
4903;SDS011;2467;48.142;11.616;2023-05-09T02:02:18;15.07;;;13.73;;
4903;SDS011;2467;48.142;11.616;2023-05-09T02:02:51;16.13;;;14.73;;
4903;SDS011;2467;48.142;11.616;2023-05-09T02:03:24;17.20;;;15.70;;
4903;SDS011;2467;48.142;11.616;2023-05-09T02:03:57;16.10;;;14.80;;
4903;SDS011;2467;48.142;11.616;2023-05-09T02:04:30;17.10;;;15.63;;
4903;SDS011;2467;48.142;11.616;2023-05-09T02:05:03;17.27;;;15.70;;
4903;SDS011;2467;48.142;11.616;2023-05-09T02:05:37;16.48;;;15.07;;
4903;SDS011;2467;48.142;11.616;2023-05-09T02:06:10;15.25;;;13.75;;
4903;SDS011;2467;48.142;11.616;2023-05-09T02:06:42;16.95;;;15.55;;
4903;SDS011;2467;48.142;11.616;2023-05-09T02:07:17;16.17;;;14.77;;
4903;SDS011;2467;48.142;11.616;2023-05-09T02:07:49;17.17;;;15.60;;
4903;SDS011;2467;48.142;11.616;2023-05-09T02:08:21;18.55;;;16.95;;
4903;SDS011;2467;48.142;11.616;2023-05-09T02:08:54;16.27;;;14.90;;
4903;SDS011;2467;48.142;11.616;2023-05-09T02:09:27;18.23;;;16.52;;
4903;SDS011;2467;48.142;11.616;2023-05-09T02:09:59;16.02;;;14.60;;
4903;SDS011;2467;48.142;11.616;2023-05-09T02:10:33;16.73;;;15.32;;
4903;SDS011;2467;48.142;11.616;2023-05-09T02:11:06;18.90;;;17.20;;
4903;SDS011;2467;48.142;11.616;2023-05-09T02:11:38;16.63;;;15.23;;
4903;SDS011;2467;48.142;11.616;2023-05-09T02:12:11;18.65;;;16.92;;
4903;SDS011;2467;48.142;11.616;2023-05-09T02:12:44;17.60;;;16.10;;
4903;SDS011;2467;48.142;11.616;2023-05-09T02:13:16;17.45;;;15.85;;
4903;SDS011;2467;48.142;11.616;2023-05-09T02:13:48;16.15;;;14.82;;
4903;SDS011;2467;48.142;11.616;2023-05-09T02:14:21;16.73;;;15.10;;
4903;SDS011;2467;48.142;11.616;2023-05-09T02:14:53;16.98;;;15.27;;
4903;SDS011;2467;48.142;11.616;2023-05-09T02:15:26;16.30;;;14.90;;
4903;SDS011;2467;48.142;11.616;2023-05-09T02:16:01;16.65;;;15.10;;
4903;SDS011;2467;48.142;11.616;2023-05-09T02:16:33;15.45;;;14.10;;
4903;SDS011;2467;48.142;11.616;2023-05-09T02:17:05;16.27;;;14.82;;
4903;SDS011;2467;48.142;11.616;2023-05-09T02:17:39;17.48;;;15.82;;
4903;SDS011;2467;48.142;11.616;2023-05-09T02:18:12;16.30;;;14.90;;
4903;SDS011;2467;48.142;11.616;2023-05-09T02:18:44;17.33;;;15.85;;
4903;SDS011;2467;48.142;11.616;2023-05-09T02:19:17;16.85;;;15.45;;
4903;SDS011;2467;48.142;11.616;2023-05-09T02:19:49;16.90;;;15.40;;
4903;SDS011;2467;48.142;11.616;2023-05-09T02:20:21;16.27;;;14.90;;
4903;SDS011;2467;48.142;11.616;2023-05-09T02:20:53;16.98;;;15.38;;
4903;SDS011;2467;48.142;11.616;2023-05-09T02:21:26;17.17;;;15.68;;
4903;SDS011;2467;48.142;11.616;2023-05-09T02:21:59;16.90;;;15.30;;
4903;SDS011;2467;48.142;11.616;2023-05-09T02:22:32;17.65;;;15.95;;
4903;SDS011;2467;48.142;11.616;2023-05-09T02:23:04;15.85;;;14.38;;
4903;SDS011;2467;48.142;11.616;2023-05-09T02:23:36;17.40;;;15.80;;
4903;SDS011;2467;48.142;11.616;2023-05-09T02:24:08;17.63;;;16.13;;
4903;SDS011;2467;48.142;11.616;2023-05-09T02:24:41;17.33;;;15.70;;
4903;SDS011;2467;48.142;11.616;2023-05-09T02:25:14;15.60;;;14.00;;
4903;SDS011;2467;48.142;11.616;2023-05-09T02:25:47;17.13;;;15.25;;
4903;SDS011;2467;48.142;11.616;2023-05-09T02:26:20;16.90;;;15.30;;
4903;SDS011;2467;48.142;11.616;2023-05-09T02:26:52;17.88;;;16.13;;
4903;SDS011;2467;48.142;11.616;2023-05-09T02:27:25;16.17;;;14.88;;
4903;SDS011;2467;48.142;11.616;2023-05-09T02:27:58;16.15;;;14.65;;
4903;SDS011;2467;48.142;11.616;2023-05-09T02:28:31;17.00;;;15.60;;
4903;SDS011;2467;48.142;11.616;2023-05-09T02:29:04;15.98;;;14.57;;
4903;SDS011;2467;48.142;11.616;2023-05-09T02:29:39;16.17;;;14.63;;
4903;SDS011;2467;48.142;11.616;2023-05-09T02:30:16;18.55;;;16.88;;
4903;SDS011;2467;48.142;11.616;2023-05-09T02:30:52;16.70;;;15.13;;
4903;SDS011;2467;48.142;11.616;2023-05-09T02:31:28;17.23;;;15.70;;
4903;SDS011;2467;48.142;11.616;2023-05-09T02:32:01;17.55;;;15.95;;
4903;SDS011;2467;48.142;11.616;2023-05-09T02:32:36;15.57;;;14.23;;
4903;SDS011;2467;48.142;11.616;2023-05-09T02:33:11;16.42;;;14.82;;
4903;SDS011;2467;48.142;11.616;2023-05-09T02:33:43;18.73;;;17.05;;
4903;SDS011;2467;48.142;11.616;2023-05-09T02:34:17;17.23;;;15.73;;
4903;SDS011;2467;48.142;11.616;2023-05-09T02:34:51;16.63;;;14.98;;
4903;SDS011;2467;48.142;11.616;2023-05-09T02:35:25;16.55;;;15.15;;
4903;SDS011;2467;48.142;11.616;2023-05-09T02:35:59;14.55;;;13.20;;
4903;SDS011;2467;48.142;11.616;2023-05-09T02:36:32;16.63;;;14.93;;
4903;SDS011;2467;48.142;11.616;2023-05-09T02:37:04;16.73;;;15.20;;
4903;SDS011;2467;48.142;11.616;2023-05-09T02:37:37;16.02;;;14.68;;
4903;SDS011;2467;48.142;11.616;2023-05-09T02:38:10;17.42;;;15.93;;
4903;SDS011;2467;48.142;11.616;2023-05-09T02:38:43;16.58;;;15.18;;
4903;SDS011;2467;48.142;11.616;2023-05-09T02:39:15;16.05;;;14.40;;
4903;SDS011;2467;48.142;11.616;2023-05-09T02:39:48;16.00;;;14.63;;
4903;SDS011;2467;48.142;11.616;2023-05-09T02:40:20;16.77;;;15.00;;
4903;SDS011;2467;48.142;11.616;2023-05-09T02:40:53;16.52;;;14.93;;
4903;SDS011;2467;48.142;11.616;2023-05-09T02:41:26;16.40;;;15.00;;
4903;SDS011;2467;48.142;11.616;2023-05-09T02:42:04;16.60;;;15.10;;
4903;SDS011;2467;48.142;11.616;2023-05-09T02:42:37;15.85;;;14.40;;
4903;SDS011;2467;48.142;11.616;2023-05-09T02:43:09;16.85;;;15.35;;
4903;SDS011;2467;48.142;11.616;2023-05-09T02:43:41;17.63;;;15.98;;
4903;SDS011;2467;48.142;11.616;2023-05-09T02:44:13;16.30;;;14.85;;
4903;SDS011;2467;48.142;11.616;2023-05-09T02:44:45;15.32;;;13.82;;
4903;SDS011;2467;48.142;11.616;2023-05-09T02:45:18;16.80;;;15.32;;
4903;SDS011;2467;48.142;11.616;2023-05-09T02:45:50;18.27;;;15.80;;
4903;SDS011;2467;48.142;11.616;2023-05-09T02:46:25;17.48;;;16.08;;
4903;SDS011;2467;48.142;11.616;2023-05-09T02:46:57;16.80;;;14.27;;
4903;SDS011;2467;48.142;11.616;2023-05-09T02:47:28;15.57;;;14.25;;
4903;SDS011;2467;48.142;11.616;2023-05-09T02:48:02;17.27;;;15.57;;
4903;SDS011;2467;48.142;11.616;2023-05-09T02:48:38;17.08;;;15.48;;
4903;SDS011;2467;48.142;11.616;2023-05-09T02:49:10;15.27;;;13.88;;
4903;SDS011;2467;48.142;11.616;2023-05-09T02:50:01;15.70;;;14.30;;
4903;SDS011;2467;48.142;11.616;2023-05-09T02:50:34;15.68;;;14.10;;
4903;SDS011;2467;48.142;11.616;2023-05-09T02:51:08;16.08;;;14.68;;
4903;SDS011;2467;48.142;11.616;2023-05-09T02:51:40;17.23;;;15.57;;
4903;SDS011;2467;48.142;11.616;2023-05-09T02:52:11;16.60;;;15.18;;
4903;SDS011;2467;48.142;11.616;2023-05-09T02:52:44;17.13;;;15.45;;
4903;SDS011;2467;48.142;11.616;2023-05-09T02:53:16;17.10;;;14.93;;
4903;SDS011;2467;48.142;11.616;2023-05-09T02:53:48;16.45;;;14.95;;
4903;SDS011;2467;48.142;11.616;2023-05-09T02:54:21;17.05;;;15.45;;
4903;SDS011;2467;48.142;11.616;2023-05-09T02:54:53;16.83;;;15.32;;
4903;SDS011;2467;48.142;11.616;2023-05-09T02:55:25;17.35;;;15.55;;
4903;SDS011;2467;48.142;11.616;2023-05-09T02:55:58;16.42;;;14.90;;
4903;SDS011;2467;48.142;11.616;2023-05-09T02:56:30;16.95;;;15.55;;
4903;SDS011;2467;48.142;11.616;2023-05-09T02:57:02;17.27;;;15.57;;
4903;SDS011;2467;48.142;11.616;2023-05-09T02:57:35;15.48;;;14.18;;
4903;SDS011;2467;48.142;11.616;2023-05-09T02:58:07;16.77;;;15.27;;
4903;SDS011;2467;48.142;11.616;2023-05-09T02:58:45;16.98;;;15.43;;
4903;SDS011;2467;48.142;11.616;2023-05-09T02:59:21;17.02;;;14.35;;
4903;SDS011;2467;48.142;11.616;2023-05-09T02:59:53;16.75;;;15.15;;
4903;SDS011;2467;48.142;11.616;2023-05-09T03:00:24;16.67;;;15.13;;
4903;SDS011;2467;48.142;11.616;2023-05-09T03:00:59;16.65;;;15.15;;
4903;SDS011;2467;48.142;11.616;2023-05-09T03:01:31;16.15;;;14.75;;
4903;SDS011;2467;48.142;11.616;2023-05-09T03:02:02;16.33;;;14.77;;
4903;SDS011;2467;48.142;11.616;2023-05-09T03:02:37;17.77;;;16.25;;
4903;SDS011;2467;48.142;11.616;2023-05-09T03:03:09;14.98;;;13.68;;
4903;SDS011;2467;48.142;11.616;2023-05-09T03:03:41;16.15;;;14.65;;
4903;SDS011;2467;48.142;11.616;2023-05-09T03:04:13;16.70;;;15.10;;
4903;SDS011;2467;48.142;11.616;2023-05-09T03:04:46;16.15;;;14.75;;
4903;SDS011;2467;48.142;11.616;2023-05-09T03:05:18;16.98;;;15.30;;
4903;SDS011;2467;48.142;11.616;2023-05-09T03:05:50;16.35;;;14.38;;
4903;SDS011;2467;48.142;11.616;2023-05-09T03:06:23;17.48;;;15.88;;
4903;SDS011;2467;48.142;11.616;2023-05-09T03:06:55;16.08;;;14.68;;
4903;SDS011;2467;48.142;11.616;2023-05-09T03:07:27;15.60;;;14.25;;
4903;SDS011;2467;48.142;11.616;2023-05-09T03:07:59;17.60;;;16.00;;
4903;SDS011;2467;48.142;11.616;2023-05-09T03:08:31;17.77;;;15.93;;
4903;SDS011;2467;48.142;11.616;2023-05-09T03:09:03;17.45;;;15.77;;
4903;SDS011;2467;48.142;11.616;2023-05-09T03:09:37;17.17;;;15.68;;
4903;SDS011;2467;48.142;11.616;2023-05-09T03:10:11;17.67;;;16.08;;
4903;SDS011;2467;48.142;11.616;2023-05-09T03:10:43;17.92;;;16.33;;
4903;SDS011;2467;48.142;11.616;2023-05-09T03:11:16;17.00;;;15.50;;
4903;SDS011;2467;48.142;11.616;2023-05-09T03:11:48;15.98;;;14.68;;
4903;SDS011;2467;48.142;11.616;2023-05-09T03:12:20;17.40;;;15.80;;
4903;SDS011;2467;48.142;11.616;2023-05-09T03:12:53;16.90;;;14.95;;
4903;SDS011;2467;48.142;11.616;2023-05-09T03:13:25;17.70;;;15.80;;
4903;SDS011;2467;48.142;11.616;2023-05-09T03:13:57;16.75;;;15.10;;
4903;SDS011;2467;48.142;11.616;2023-05-09T03:14:29;18.23;;;16.63;;
4903;SDS011;2467;48.142;11.616;2023-05-09T03:15:01;16.30;;;14.80;;
4903;SDS011;2467;48.142;11.616;2023-05-09T03:15:34;16.63;;;15.10;;
4903;SDS011;2467;48.142;11.616;2023-05-09T03:16:10;17.42;;;15.50;;
4903;SDS011;2467;48.142;11.616;2023-05-09T03:16:44;17.40;;;15.65;;
4903;SDS011;2467;48.142;11.616;2023-05-09T03:17:15;15.82;;;14.43;;
4903;SDS011;2467;48.142;11.616;2023-05-09T03:17:51;16.60;;;15.20;;
4903;SDS011;2467;48.142;11.616;2023-05-09T03:18:23;16.95;;;15.50;;
4903;SDS011;2467;48.142;11.616;2023-05-09T03:18:55;16.60;;;15.00;;
4903;SDS011;2467;48.142;11.616;2023-05-09T03:19:28;16.17;;;14.68;;
4903;SDS011;2467;48.142;11.616;2023-05-09T03:20:00;16.65;;;15.25;;
4903;SDS011;2467;48.142;11.616;2023-05-09T03:20:34;17.05;;;15.55;;
4903;SDS011;2467;48.142;11.616;2023-05-09T03:21:07;16.48;;;15.07;;
4903;SDS011;2467;48.142;11.616;2023-05-09T03:21:39;17.80;;;15.90;;
4903;SDS011;2467;48.142;11.616;2023-05-09T03:22:11;16.52;;;15.13;;
4903;SDS011;2467;48.142;11.616;2023-05-09T03:22:44;16.88;;;15.27;;